sensor_id;sensor_type;location;lat;lon;timestamp;pressure;altitude;pressure_sealevel;temperature;humidity
71361;BME280;59166;48.908;1.870;2023-06-26T00:01:55;100483.84;;;20.02;74.50
71361;BME280;59166;48.908;1.870;2023-06-26T00:06:57;100485.09;;;19.96;75.36
71361;BME280;59166;48.908;1.870;2023-06-26T00:11:58;100489.88;;;19.82;76.03
71361;BME280;59166;48.908;1.870;2023-06-26T00:16:59;100496.97;;;19.83;77.02
71361;BME280;59166;48.908;1.870;2023-06-26T00:22:01;100500.31;;;19.71;77.61
71361;BME280;59166;48.908;1.870;2023-06-26T00:27:01;100500.41;;;19.58;78.12
71361;BME280;59166;48.908;1.870;2023-06-26T00:32:02;100506.78;;;19.44;79.28
71361;BME280;59166;48.908;1.870;2023-06-26T00:37:04;100508.50;;;19.32;79.77
71361;BME280;59166;48.908;1.870;2023-06-26T00:42:05;100521.31;;;19.23;79.84
71361;BME280;59166;48.908;1.870;2023-06-26T00:47:14;100519.75;;;19.08;80.61
71361;BME280;59166;48.908;1.870;2023-06-26T00:52:16;100535.41;;;18.94;81.25
71361;BME280;59166;48.908;1.870;2023-06-26T00:57:17;100532.09;;;18.83;81.64
71361;BME280;59166;48.908;1.870;2023-06-26T01:02:18;100540.53;;;18.73;82.61
71361;BME280;59166;48.908;1.870;2023-06-26T01:07:21;100548.78;;;18.60;83.21
71361;BME280;59166;48.908;1.870;2023-06-26T01:12:22;100550.13;;;18.48;83.89
71361;BME280;59166;48.908;1.870;2023-06-26T01:17:23;100553.59;;;18.40;84.84
71361;BME280;59166;48.908;1.870;2023-06-26T01:22:29;100568.09;;;18.27;84.96
71361;BME280;59166;48.908;1.870;2023-06-26T01:27:34;100559.69;;;18.24;85.56
71361;BME280;59166;48.908;1.870;2023-06-26T01:32:35;100557.03;;;18.19;85.16
71361;BME280;59166;48.908;1.870;2023-06-26T01:37:36;100570.06;;;18.08;85.75
71361;BME280;59166;48.908;1.870;2023-06-26T01:42:38;100576.47;;;18.04;85.76
71361;BME280;59166;48.908;1.870;2023-06-26T01:47:43;100581.81;;;17.95;86.01
71361;BME280;59166;48.908;1.870;2023-06-26T01:52:53;100592.25;;;17.93;86.82
71361;BME280;59166;48.908;1.870;2023-06-26T01:57:59;100590.53;;;17.83;87.44
71361;BME280;59166;48.908;1.870;2023-06-26T02:03:00;100600.81;;;17.73;88.49
71361;BME280;59166;48.908;1.870;2023-06-26T02:08:01;100599.56;;;17.65;89.28
71361;BME280;59166;48.908;1.870;2023-06-26T02:13:03;100605.28;;;17.50;90.11
71361;BME280;59166;48.908;1.870;2023-06-26T02:18:03;100608.19;;;17.40;91.21
71361;BME280;59166;48.908;1.870;2023-06-26T02:23:04;100616.25;;;17.31;92.23
71361;BME280;59166;48.908;1.870;2023-06-26T02:28:06;100618.25;;;17.26;92.74
71361;BME280;59166;48.908;1.870;2023-06-26T02:33:06;100622.91;;;17.25;92.83
71361;BME280;59166;48.908;1.870;2023-06-26T02:38:07;100620.78;;;17.22;93.12
71361;BME280;59166;48.908;1.870;2023-06-26T02:43:09;100628.44;;;17.20;93.08
71361;BME280;59166;48.908;1.870;2023-06-26T02:48:10;100620.09;;;17.12;93.31
71361;BME280;59166;48.908;1.870;2023-06-26T02:53:10;100622.75;;;17.17;93.20
71361;BME280;59166;48.908;1.870;2023-06-26T02:58:12;100628.78;;;17.14;92.60
71361;BME280;59166;48.908;1.870;2023-06-26T03:03:13;100635.16;;;17.09;93.26
71361;BME280;59166;48.908;1.870;2023-06-26T03:08:14;100630.63;;;17.00;93.31
71361;BME280;59166;48.908;1.870;2023-06-26T03:13:16;100642.34;;;17.00;94.01
71361;BME280;59166;48.908;1.870;2023-06-26T03:18:16;100640.81;;;16.94;94.58
71361;BME280;59166;48.908;1.870;2023-06-26T03:23:17;100638.13;;;16.89;94.95
71361;BME280;59166;48.908;1.870;2023-06-26T03:28:19;100656.72;;;16.87;94.98
71361;BME280;59166;48.908;1.870;2023-06-26T03:33:20;100658.72;;;17.00;94.30
71361;BME280;59166;48.908;1.870;2023-06-26T03:38:21;100655.53;;;16.93;94.41
71361;BME280;59166;48.908;1.870;2023-06-26T03:43:23;100662.78;;;16.84;94.90
71361;BME280;59166;48.908;1.870;2023-06-26T03:48:24;100666.31;;;16.84;94.83
71361;BME280;59166;48.908;1.870;2023-06-26T03:53:24;100683.09;;;16.73;96.02
71361;BME280;59166;48.908;1.870;2023-06-26T03:58:26;100682.16;;;16.59;96.69
71361;BME280;59166;48.908;1.870;2023-06-26T04:03:27;100698.53;;;16.59;97.17
71361;BME280;59166;48.908;1.870;2023-06-26T04:08:28;100706.56;;;16.50;97.17
71361;BME280;59166;48.908;1.870;2023-06-26T04:13:30;100704.22;;;16.38;97.39
71361;BME280;59166;48.908;1.870;2023-06-26T04:18:30;100709.50;;;16.30;98.41
71361;BME280;59166;48.908;1.870;2023-06-26T04:23:31;100716.34;;;16.27;98.78
71361;BME280;59166;48.908;1.870;2023-06-26T04:28:33;100723.13;;;16.30;99.29
71361;BME280;59166;48.908;1.870;2023-06-26T04:33:34;100727.97;;;16.38;99.27
71361;BME280;59166;48.908;1.870;2023-06-26T04:38:35;100730.81;;;16.52;98.15
71361;BME280;59166;48.908;1.870;2023-06-26T04:43:37;100728.59;;;16.54;98.39
71361;BME280;59166;48.908;1.870;2023-06-26T04:48:38;100731.56;;;16.57;98.15
71361;BME280;59166;48.908;1.870;2023-06-26T04:53:38;100731.84;;;16.56;97.64
71361;BME280;59166;48.908;1.870;2023-06-26T04:58:40;100735.69;;;16.55;98.43
71361;BME280;59166;48.908;1.870;2023-06-26T05:03:41;100742.03;;;16.45;98.67
71361;BME280;59166;48.908;1.870;2023-06-26T05:08:41;100750.16;;;16.55;98.23
71361;BME280;59166;48.908;1.870;2023-06-26T05:13:43;100759.13;;;16.56;98.29
71361;BME280;59166;48.908;1.870;2023-06-26T05:18:44;100755.97;;;16.43;98.20
71361;BME280;59166;48.908;1.870;2023-06-26T05:23:45;100761.91;;;16.51;98.42
71361;BME280;59166;48.908;1.870;2023-06-26T05:28:49;100767.84;;;16.58;98.21
71361;BME280;59166;48.908;1.870;2023-06-26T05:33:50;100762.44;;;16.53;98.20
71361;BME280;59166;48.908;1.870;2023-06-26T05:38:53;100767.47;;;16.40;99.04
71361;BME280;59166;48.908;1.870;2023-06-26T05:43:55;100759.56;;;16.39;99.58
71361;BME280;59166;48.908;1.870;2023-06-26T05:48:56;100761.47;;;16.38;100.00
71361;BME280;59166;48.908;1.870;2023-06-26T05:53:57;100769.75;;;16.57;98.97
71361;BME280;59166;48.908;1.870;2023-06-26T05:58:59;100766.09;;;16.67;100.00
71361;BME280;59166;48.908;1.870;2023-06-26T06:04:01;100760.88;;;16.94;98.63
71361;BME280;59166;48.908;1.870;2023-06-26T06:09:02;100763.50;;;17.04;96.78
71361;BME280;59166;48.908;1.870;2023-06-26T06:14:04;100774.03;;;17.16;97.63
71361;BME280;59166;48.908;1.870;2023-06-26T06:19:04;100786.78;;;17.20;95.92
71361;BME280;59166;48.908;1.870;2023-06-26T06:24:05;100795.41;;;17.32;95.02
71361;BME280;59166;48.908;1.870;2023-06-26T06:29:07;100798.00;;;17.42;95.06
71361;BME280;59166;48.908;1.870;2023-06-26T06:34:08;100801.59;;;17.57;93.55
71361;BME280;59166;48.908;1.870;2023-06-26T06:39:09;100809.94;;;17.46;92.04
71361;BME280;59166;48.908;1.870;2023-06-26T06:44:11;100803.97;;;17.44;89.95
71361;BME280;59166;48.908;1.870;2023-06-26T06:49:11;100810.47;;;17.49;89.70
71361;BME280;59166;48.908;1.870;2023-06-26T06:54:12;100802.72;;;17.56;87.39
71361;BME280;59166;48.908;1.870;2023-06-26T06:59:14;100805.53;;;17.88;87.01
71361;BME280;59166;48.908;1.870;2023-06-26T07:04:15;100814.16;;;17.95;86.03
71361;BME280;59166;48.908;1.870;2023-06-26T07:09:16;100806.91;;;18.04;85.94
71361;BME280;59166;48.908;1.870;2023-06-26T07:14:18;100811.50;;;18.27;83.15
71361;BME280;59166;48.908;1.870;2023-06-26T07:19:19;100816.44;;;18.58;81.08
71361;BME280;59166;48.908;1.870;2023-06-26T07:24:19;100826.03;;;18.87;79.89
71361;BME280;59166;48.908;1.870;2023-06-26T07:29:21;100830.91;;;19.04;78.75
71361;BME280;59166;48.908;1.870;2023-06-26T07:34:22;100828.19;;;19.31;76.61
71361;BME280;59166;48.908;1.870;2023-06-26T07:39:23;100840.47;;;19.47;74.06
71361;BME280;59166;48.908;1.870;2023-06-26T07:44:25;100841.25;;;19.62;72.79
71361;BME280;59166;48.908;1.870;2023-06-26T07:49:26;100841.19;;;19.89;70.87
71361;BME280;59166;48.908;1.870;2023-06-26T07:54:27;100851.81;;;20.04;67.69
71361;BME280;59166;48.908;1.870;2023-06-26T07:59:30;100851.91;;;20.35;68.32
71361;BME280;59166;48.908;1.870;2023-06-26T08:04:30;100861.25;;;20.34;65.10
71361;BME280;59166;48.908;1.870;2023-06-26T08:09:31;100864.38;;;20.63;64.81
71361;BME280;59166;48.908;1.870;2023-06-26T08:14:33;100860.25;;;20.96;61.93
71361;BME280;59166;48.908;1.870;2023-06-26T08:19:34;100861.69;;;20.94;63.11
71361;BME280;59166;48.908;1.870;2023-06-26T08:24:35;100867.31;;;20.89;61.37
71361;BME280;59166;48.908;1.870;2023-06-26T08:29:37;100871.63;;;20.59;61.18
71361;BME280;59166;48.908;1.870;2023-06-26T08:34:38;100864.59;;;21.37;60.30
71361;BME280;59166;48.908;1.870;2023-06-26T08:39:38;100866.91;;;21.52;58.40
71361;BME280;59166;48.908;1.870;2023-06-26T08:44:40;100852.84;;;21.62;57.78
71361;BME280;59166;48.908;1.870;2023-06-26T08:49:46;100872.50;;;21.86;55.05
71361;BME280;59166;48.908;1.870;2023-06-26T08:54:53;100864.28;;;22.12;57.01
71361;BME280;59166;48.908;1.870;2023-06-26T08:59:57;100861.34;;;21.74;58.02
71361;BME280;59166;48.908;1.870;2023-06-26T09:04:57;100869.63;;;22.34;54.67
71361;BME280;59166;48.908;1.870;2023-06-26T09:09:58;100858.47;;;22.22;53.91
71361;BME280;59166;48.908;1.870;2023-06-26T09:15:01;100868.63;;;22.65;51.98
71361;BME280;59166;48.908;1.870;2023-06-26T09:20:02;100862.09;;;22.86;50.15
71361;BME280;59166;48.908;1.870;2023-06-26T09:25:02;100862.97;;;22.27;52.64
71361;BME280;59166;48.908;1.870;2023-06-26T09:30:06;100870.75;;;21.99;57.37
71361;BME280;59166;48.908;1.870;2023-06-26T09:35:07;100864.06;;;22.86;50.37
71361;BME280;59166;48.908;1.870;2023-06-26T09:40:09;100872.53;;;23.57;47.46
71361;BME280;59166;48.908;1.870;2023-06-26T09:45:18;100882.59;;;22.51;50.47
71361;BME280;59166;48.908;1.870;2023-06-26T09:50:21;100898.28;;;22.50;51.35
71361;BME280;59166;48.908;1.870;2023-06-26T09:55:22;100896.22;;;23.11;49.66
71361;BME280;59166;48.908;1.870;2023-06-26T10:00:25;100901.53;;;22.35;51.39
71361;BME280;59166;48.908;1.870;2023-06-26T10:05:25;100890.84;;;22.60;51.07
71361;BME280;59166;48.908;1.870;2023-06-26T10:10:27;100885.19;;;23.11;47.15
71361;BME280;59166;48.908;1.870;2023-06-26T10:15:30;100904.94;;;23.68;45.01
71361;BME280;59166;48.908;1.870;2023-06-26T10:20:32;100896.88;;;23.84;47.09
71361;BME280;59166;48.908;1.870;2023-06-26T10:25:34;100900.59;;;23.12;47.52
71361;BME280;59166;48.908;1.870;2023-06-26T10:30:39;100908.03;;;23.20;46.69
71361;BME280;59166;48.908;1.870;2023-06-26T10:35:44;100906.50;;;23.78;46.83
71361;BME280;59166;48.908;1.870;2023-06-26T10:40:45;100889.97;;;24.40;46.90
71361;BME280;59166;48.908;1.870;2023-06-26T10:45:48;100908.09;;;23.79;47.00
71361;BME280;59166;48.908;1.870;2023-06-26T10:50:50;100908.19;;;24.53;44.80
71361;BME280;59166;48.908;1.870;2023-06-26T10:55:55;100898.66;;;24.09;42.86
71361;BME280;59166;48.908;1.870;2023-06-26T11:01:17;100915.19;;;23.59;45.99
71361;BME280;59166;48.908;1.870;2023-06-26T11:06:19;100914.56;;;24.12;47.42
71361;BME280;59166;48.908;1.870;2023-06-26T11:11:21;100903.44;;;24.41;45.21
71361;BME280;59166;48.908;1.870;2023-06-26T11:16:25;100904.88;;;23.77;40.37
71361;BME280;59166;48.908;1.870;2023-06-26T11:21:26;100907.81;;;24.01;41.07
71361;BME280;59166;48.908;1.870;2023-06-26T11:26:27;100889.63;;;24.41;43.66
71361;BME280;59166;48.908;1.870;2023-06-26T11:31:30;100889.03;;;24.89;43.10
71361;BME280;59166;48.908;1.870;2023-06-26T11:36:31;100912.06;;;25.50;39.54
71361;BME280;59166;48.908;1.870;2023-06-26T11:41:34;100902.97;;;25.50;38.35
71361;BME280;59166;48.908;1.870;2023-06-26T11:46:37;100903.69;;;25.02;37.27
71361;BME280;59166;48.908;1.870;2023-06-26T11:51:38;100898.91;;;25.60;38.69
71361;BME280;59166;48.908;1.870;2023-06-26T11:56:38;100899.66;;;26.09;36.59
71361;BME280;59166;48.908;1.870;2023-06-26T12:01:42;100897.06;;;25.76;39.02
71361;BME280;59166;48.908;1.870;2023-06-26T12:06:46;100907.22;;;25.84;38.85
71361;BME280;59166;48.908;1.870;2023-06-26T12:11:48;100896.09;;;26.08;38.20
71361;BME280;59166;48.908;1.870;2023-06-26T12:16:53;100905.31;;;26.24;38.37
71361;BME280;59166;48.908;1.870;2023-06-26T12:21:53;100904.31;;;26.44;34.75
71361;BME280;59166;48.908;1.870;2023-06-26T12:26:55;100901.28;;;26.49;36.78
71361;BME280;59166;48.908;1.870;2023-06-26T12:31:57;100903.59;;;26.75;35.81
71361;BME280;59166;48.908;1.870;2023-06-26T12:37:00;100889.69;;;26.60;35.11
71361;BME280;59166;48.908;1.870;2023-06-26T12:42:01;100911.59;;;26.37;36.41
71361;BME280;59166;48.908;1.870;2023-06-26T12:47:04;100898.38;;;26.58;33.44
71361;BME280;59166;48.908;1.870;2023-06-26T12:52:05;100896.56;;;26.50;34.63
71361;BME280;59166;48.908;1.870;2023-06-26T12:57:06;100900.25;;;26.70;35.36
71361;BME280;59166;48.908;1.870;2023-06-26T13:02:09;100895.63;;;26.46;34.64
71361;BME280;59166;48.908;1.870;2023-06-26T13:07:10;100899.91;;;26.16;33.77
71361;BME280;59166;48.908;1.870;2023-06-26T13:12:11;100895.69;;;25.70;33.72
71361;BME280;59166;48.908;1.870;2023-06-26T13:17:13;100901.53;;;26.05;34.87
71361;BME280;59166;48.908;1.870;2023-06-26T13:22:13;100894.69;;;26.02;35.31
71361;BME280;59166;48.908;1.870;2023-06-26T13:27:14;100910.16;;;26.55;34.66
71361;BME280;59166;48.908;1.870;2023-06-26T13:32:16;100900.34;;;26.58;32.94
71361;BME280;59166;48.908;1.870;2023-06-26T13:37:17;100905.28;;;26.64;32.67
71361;BME280;59166;48.908;1.870;2023-06-26T13:42:18;100896.00;;;26.44;34.45
71361;BME280;59166;48.908;1.870;2023-06-26T13:47:20;100906.13;;;26.52;33.99
71361;BME280;59166;48.908;1.870;2023-06-26T13:52:20;100903.56;;;26.32;32.42
71361;BME280;59166;48.908;1.870;2023-06-26T13:57:21;100900.78;;;26.60;32.89
71361;BME280;59166;48.908;1.870;2023-06-26T14:02:23;100898.97;;;26.51;32.13
71361;BME280;59166;48.908;1.870;2023-06-26T14:07:24;100907.94;;;26.61;33.04
71361;BME280;59166;48.908;1.870;2023-06-26T14:12:24;100893.44;;;26.79;33.37
71361;BME280;59166;48.908;1.870;2023-06-26T14:17:26;100898.19;;;26.79;31.88
71361;BME280;59166;48.908;1.870;2023-06-26T14:22:27;100898.47;;;26.62;30.91
71361;BME280;59166;48.908;1.870;2023-06-26T14:27:28;100905.38;;;26.68;32.50
71361;BME280;59166;48.908;1.870;2023-06-26T14:32:30;100919.44;;;26.75;34.11
71361;BME280;59166;48.908;1.870;2023-06-26T14:37:30;100913.31;;;26.81;32.98
71361;BME280;59166;48.908;1.870;2023-06-26T14:42:31;100907.59;;;26.62;34.34
71361;BME280;59166;48.908;1.870;2023-06-26T14:47:33;100919.78;;;26.45;33.09
71361;BME280;59166;48.908;1.870;2023-06-26T14:52:34;100921.94;;;26.00;34.08
71361;BME280;59166;48.908;1.870;2023-06-26T14:57:35;100910.75;;;25.96;34.89
71361;BME280;59166;48.908;1.870;2023-06-26T15:02:37;100919.16;;;26.24;33.59
71361;BME280;59166;48.908;1.870;2023-06-26T15:07:37;100923.25;;;25.54;35.56
71361;BME280;59166;48.908;1.870;2023-06-26T15:12:38;100910.44;;;25.49;34.61
71361;BME280;59166;48.908;1.870;2023-06-26T15:17:40;100920.44;;;25.30;34.55
71361;BME280;59166;48.908;1.870;2023-06-26T15:22:41;100902.25;;;25.77;32.15
71361;BME280;59166;48.908;1.870;2023-06-26T15:27:41;100916.63;;;26.19;31.45
71361;BME280;59166;48.908;1.870;2023-06-26T15:32:44;100906.75;;;25.94;31.75
71361;BME280;59166;48.908;1.870;2023-06-26T15:37:44;100908.78;;;25.12;33.29
71361;BME280;59166;48.908;1.870;2023-06-26T15:42:45;100908.44;;;25.26;33.20
71361;BME280;59166;48.908;1.870;2023-06-26T15:47:48;100903.66;;;25.47;34.11
71361;BME280;59166;48.908;1.870;2023-06-26T15:52:49;100908.44;;;25.26;34.54
71361;BME280;59166;48.908;1.870;2023-06-26T15:57:49;100909.47;;;25.21;34.01
71361;BME280;59166;48.908;1.870;2023-06-26T16:02:51;100906.91;;;25.04;34.65
71361;BME280;59166;48.908;1.870;2023-06-26T16:07:52;100903.19;;;24.88;36.69
71361;BME280;59166;48.908;1.870;2023-06-26T16:12:53;100906.22;;;25.07;36.94
71361;BME280;59166;48.908;1.870;2023-06-26T16:17:55;100905.75;;;24.93;36.52
71361;BME280;59166;48.908;1.870;2023-06-26T16:22:55;100912.16;;;24.64;36.75
71361;BME280;59166;48.908;1.870;2023-06-26T16:27:56;100899.63;;;24.67;38.12
71361;BME280;59166;48.908;1.870;2023-06-26T16:32:58;100896.78;;;24.42;38.46
71361;BME280;59166;48.908;1.870;2023-06-26T16:37:58;100895.56;;;24.11;39.30
71361;BME280;59166;48.908;1.870;2023-06-26T16:42:59;100899.50;;;23.80;39.24
71361;BME280;59166;48.908;1.870;2023-06-26T16:48:01;100895.72;;;23.56;39.46
71361;BME280;59166;48.908;1.870;2023-06-26T16:53:02;100894.50;;;23.74;40.03
71361;BME280;59166;48.908;1.870;2023-06-26T16:58:02;100895.47;;;23.78;40.22
71361;BME280;59166;48.908;1.870;2023-06-26T17:03:05;100895.22;;;23.62;40.13
71361;BME280;59166;48.908;1.870;2023-06-26T17:08:05;100901.09;;;23.52;40.37
71361;BME280;59166;48.908;1.870;2023-06-26T17:13:06;100906.25;;;23.24;40.08
71361;BME280;59166;48.908;1.870;2023-06-26T17:18:08;100912.31;;;23.00;41.21
71361;BME280;59166;48.908;1.870;2023-06-26T17:23:08;100911.84;;;22.81;42.47
71361;BME280;59166;48.908;1.870;2023-06-26T17:28:09;100913.84;;;22.72;42.38
71361;BME280;59166;48.908;1.870;2023-06-26T17:33:11;100917.41;;;22.73;43.01
71361;BME280;59166;48.908;1.870;2023-06-26T17:38:12;100931.97;;;22.73;42.06
71361;BME280;59166;48.908;1.870;2023-06-26T17:43:12;100938.00;;;22.67;43.19
71361;BME280;59166;48.908;1.870;2023-06-26T17:48:14;100929.88;;;22.70;44.03
71361;BME280;59166;48.908;1.870;2023-06-26T17:53:15;100933.28;;;22.59;43.04
71361;BME280;59166;48.908;1.870;2023-06-26T17:58:16;100934.09;;;22.50;44.35
71361;BME280;59166;48.908;1.870;2023-06-26T18:03:18;100924.38;;;22.36;45.20
71361;BME280;59166;48.908;1.870;2023-06-26T18:08:18;100926.44;;;22.13;46.37
71361;BME280;59166;48.908;1.870;2023-06-26T18:13:19;100934.22;;;22.03;46.01
71361;BME280;59166;48.908;1.870;2023-06-26T18:18:21;100937.22;;;21.84;46.19
71361;BME280;59166;48.908;1.870;2023-06-26T18:23:22;100936.41;;;21.75;45.95
71361;BME280;59166;48.908;1.870;2023-06-26T18:28:22;100939.59;;;21.68;47.64
71361;BME280;59166;48.908;1.870;2023-06-26T18:33:24;100950.25;;;21.61;46.51
71361;BME280;59166;48.908;1.870;2023-06-26T18:38:25;100955.22;;;21.59;47.22
71361;BME280;59166;48.908;1.870;2023-06-26T18:43:26;100959.09;;;21.49;48.63
71361;BME280;59166;48.908;1.870;2023-06-26T18:48:28;100959.22;;;21.44;46.97
71361;BME280;59166;48.908;1.870;2023-06-26T18:53:28;100955.94;;;21.34;49.38
71361;BME280;59166;48.908;1.870;2023-06-26T18:58:29;100959.50;;;21.34;48.45
71361;BME280;59166;48.908;1.870;2023-06-26T19:03:31;100953.09;;;21.17;48.10
71361;BME280;59166;48.908;1.870;2023-06-26T19:08:31;100961.13;;;21.05;49.23
71361;BME280;59166;48.908;1.870;2023-06-26T19:13:32;100967.19;;;20.93;49.13
71361;BME280;59166;48.908;1.870;2023-06-26T19:18:34;100969.97;;;20.79;49.95
71361;BME280;59166;48.908;1.870;2023-06-26T19:23:36;100975.41;;;20.71;50.13
71361;BME280;59166;48.908;1.870;2023-06-26T19:28:37;100976.66;;;20.51;49.52
71361;BME280;59166;48.908;1.870;2023-06-26T19:33:39;100975.41;;;20.35;50.26
71361;BME280;59166;48.908;1.870;2023-06-26T19:38:40;100980.00;;;20.26;50.36
71361;BME280;59166;48.908;1.870;2023-06-26T19:43:41;100973.84;;;20.07;50.69
71361;BME280;59166;48.908;1.870;2023-06-26T19:48:43;100984.97;;;19.96;50.58
71361;BME280;59166;48.908;1.870;2023-06-26T19:53:48;100980.84;;;19.85;51.03
71361;BME280;59166;48.908;1.870;2023-06-26T19:58:48;100990.28;;;19.79;51.10
71361;BME280;59166;48.908;1.870;2023-06-26T20:03:51;100993.94;;;19.61;53.07
71361;BME280;59166;48.908;1.870;2023-06-26T20:08:51;100998.78;;;19.51;53.28
71361;BME280;59166;48.908;1.870;2023-06-26T20:13:52;100996.56;;;19.39;54.00
71361;BME280;59166;48.908;1.870;2023-06-26T20:18:54;101005.97;;;19.33;53.65
71361;BME280;59166;48.908;1.870;2023-06-26T20:23:55;101012.97;;;19.25;54.91
71361;BME280;59166;48.908;1.870;2023-06-26T20:28:55;101020.75;;;19.18;54.94
71361;BME280;59166;48.908;1.870;2023-06-26T20:33:58;101014.25;;;19.14;54.54
71361;BME280;59166;48.908;1.870;2023-06-26T20:38:58;101024.16;;;19.10;54.71
71361;BME280;59166;48.908;1.870;2023-06-26T20:43:59;101024.22;;;19.05;53.34
71361;BME280;59166;48.908;1.870;2023-06-26T20:49:02;101028.25;;;18.94;53.89
71361;BME280;59166;48.908;1.870;2023-06-26T20:54:03;101031.03;;;18.89;55.02
71361;BME280;59166;48.908;1.870;2023-06-26T20:59:04;101029.50;;;18.83;55.93
71361;BME280;59166;48.908;1.870;2023-06-26T21:04:06;101025.72;;;18.79;56.54
71361;BME280;59166;48.908;1.870;2023-06-26T21:09:07;101027.00;;;18.68;57.61
71361;BME280;59166;48.908;1.870;2023-06-26T21:14:10;101031.28;;;18.55;56.58
71361;BME280;59166;48.908;1.870;2023-06-26T21:19:12;101039.94;;;18.43;57.00
71361;BME280;59166;48.908;1.870;2023-06-26T21:24:13;101029.13;;;18.33;57.50
71361;BME280;59166;48.908;1.870;2023-06-26T21:29:14;101033.69;;;18.19;58.44
71361;BME280;59166;48.908;1.870;2023-06-26T21:34:17;101034.16;;;18.03;59.17
71361;BME280;59166;48.908;1.870;2023-06-26T21:39:18;101032.03;;;17.94;58.86
71361;BME280;59166;48.908;1.870;2023-06-26T21:44:19;101043.91;;;17.85;59.31
71361;BME280;59166;48.908;1.870;2023-06-26T21:49:21;101032.28;;;17.74;60.33
71361;BME280;59166;48.908;1.870;2023-06-26T21:54:21;101040.88;;;17.63;61.04
71361;BME280;59166;48.908;1.870;2023-06-26T21:59:22;101039.28;;;17.57;61.29
71361;BME280;59166;48.908;1.870;2023-06-26T22:04:24;101038.78;;;17.55;61.60
71361;BME280;59166;48.908;1.870;2023-06-26T22:09:25;101042.34;;;17.50;61.48
71361;BME280;59166;48.908;1.870;2023-06-26T22:14:29;101039.78;;;17.35;62.12
71361;BME280;59166;48.908;1.870;2023-06-26T22:19:31;101038.47;;;17.27;62.51
71361;BME280;59166;48.908;1.870;2023-06-26T22:24:37;101029.59;;;17.12;63.19
71361;BME280;59166;48.908;1.870;2023-06-26T22:29:44;101034.00;;;17.03;63.79
71361;BME280;59166;48.908;1.870;2023-06-26T22:34:46;101037.97;;;16.86;64.25
71361;BME280;59166;48.908;1.870;2023-06-26T22:39:47;101044.63;;;16.70;65.23
71361;BME280;59166;48.908;1.870;2023-06-26T22:44:47;101039.22;;;16.60;65.95
71361;BME280;59166;48.908;1.870;2023-06-26T22:49:49;101034.66;;;16.51;66.68
71361;BME280;59166;48.908;1.870;2023-06-26T22:54:50;101041.00;;;16.41;67.72
71361;BME280;59166;48.908;1.870;2023-06-26T22:59:51;101050.00;;;16.36;67.83
71361;BME280;59166;48.908;1.870;2023-06-26T23:04:53;101041.88;;;16.31;68.82
71361;BME280;59166;48.908;1.870;2023-06-26T23:09:53;101044.59;;;16.31;69.29
71361;BME280;59166;48.908;1.870;2023-06-26T23:14:54;101050.06;;;16.26;69.44
71361;BME280;59166;48.908;1.870;2023-06-26T23:19:57;101050.09;;;16.21;70.14
71361;BME280;59166;48.908;1.870;2023-06-26T23:24:58;101041.41;;;16.09;70.61
71361;BME280;59166;48.908;1.870;2023-06-26T23:29:58;101037.59;;;16.00;71.36
71361;BME280;59166;48.908;1.870;2023-06-26T23:35:00;101040.06;;;15.91;72.02
71361;BME280;59166;48.908;1.870;2023-06-26T23:40:01;101035.16;;;15.88;72.48
71361;BME280;59166;48.908;1.870;2023-06-26T23:45:02;101035.47;;;15.82;72.91
71361;BME280;59166;48.908;1.870;2023-06-26T23:50:05;101032.75;;;15.77;73.63
71361;BME280;59166;48.908;1.870;2023-06-26T23:55:09;101037.38;;;15.81;74.19
